Time;durP1;ratioP1;P1;durP2;ratioP2;P2;SDS_P1;SDS_P2;PMS_P1;PMS_P2;Temp;Humidity;BMP_temperature;BMP_pressure;BME280_temperature;BME280_humidity;BME280_pressure;Samples;Min_cycle;Max_cycle;Signal;HPM_P1;HPM_P2
2021/08/04 00:02:13;;;;;;;;;;;;;;;27.54;44.06;100507.00;1750037;80;20143;-40
2021/08/04 00:04:39;;;;;;;;;;;;;;;27.54;44.10;100504.20;1751056;80;20373;-40
2021/08/04 00:07:05;;;;;;;;;;;;;;;27.56;44.13;100499.66;1754051;80;20434;-40
2021/08/04 00:09:32;;;;;;;;;;;;;;;27.56;44.18;100497.67;1754287;80;20745;-40
2021/08/04 00:11:57;;;;;;;;;;;;;;;27.57;44.23;100502.09;1755149;80;21175;-39
2021/08/04 00:14:24;;;;;;;;;;;;;;;27.58;44.29;100501.50;1752145;80;20356;-39
2021/08/04 00:16:50;;;;;;;;;;;;;;;27.57;44.31;100502.09;1757153;80;20138;-39
2021/08/04 00:19:16;;;;;;;;;;;;;;;27.58;44.35;100502.28;1749647;80;20188;-39
2021/08/04 00:21:42;;;;;;;;;;;;;;;27.59;44.40;100505.30;1753407;80;20227;-40
2021/08/04 00:24:08;;;;;;;;;;;;;;;27.60;44.46;100511.11;1755366;80;21178;-39
2021/08/04 00:26:34;;;;;;;;;;;;;;;27.62;44.50;100521.94;1759168;80;20196;-39
2021/08/04 00:29:00;;;;;;;;;;;;;;;27.61;44.53;100514.13;1754747;80;20209;-39
2021/08/04 00:31:26;;;;;;;;;;;;;;;27.62;44.57;100512.16;1759358;80;20381;-39
2021/08/04 00:33:52;;;;;;;;;;;;;;;27.62;44.62;100508.77;1753160;80;20758;-40
2021/08/04 00:36:18;;;;;;;;;;;;;;;27.64;44.67;100516.77;1751924;80;22015;-39
2021/08/04 00:38:45;;;;;;;;;;;;;;;27.64;44.69;100523.75;1759637;80;20234;-40
2021/08/04 00:41:11;;;;;;;;;;;;;;;27.64;44.72;100525.95;1755295;80;20493;-39
2021/08/04 00:43:37;;;;;;;;;;;;;;;27.66;44.79;100522.80;1754303;80;20639;-39
2021/08/04 00:46:02;;;;;;;;;;;;;;;27.66;44.82;100526.41;1752180;80;20176;-40
2021/08/04 00:48:28;;;;;;;;;;;;;;;27.67;44.88;100528.59;1754997;80;20991;-40
2021/08/04 00:50:54;;;;;;;;;;;;;;;27.68;44.92;100530.20;1756836;80;20212;-39
2021/08/04 00:53:27;;;;;;;;;;;;;;;27.68;44.95;100526.02;1752746;80;20223;-39
2021/08/04 00:55:54;;;;;;;;;;;;;;;27.69;45.01;100523.45;1746647;80;20244;-40
2021/08/04 00:58:22;;;;;;;;;;;;;;;27.70;45.07;100525.06;1742440;80;20251;-40
2021/08/04 01:00:50;;;;;;;;;;;;;;;27.70;45.13;100522.27;1752952;80;23253;-40
2021/08/04 01:03:19;;;;;;;;;;;;;;;27.70;45.16;100518.08;1745512;80;20445;-40
2021/08/04 01:05:50;;;;;;;;;;;;;;;27.70;45.20;100516.69;1754180;80;20480;-39
2021/08/04 01:08:28;;;;;;;;;;;;;;;27.71;45.24;100520.48;1743976;80;20176;-39
2021/08/04 01:10:54;;;;;;;;;;;;;;;27.71;45.29;100524.67;1749359;80;20214;-39
2021/08/04 01:13:28;;;;;;;;;;;;;;;27.72;45.33;100518.50;1755311;80;21125;-39
2021/08/04 01:16:06;;;;;;;;;;;;;;;27.72;45.38;100525.48;1753799;80;20241;-39
2021/08/04 01:18:38;;;;;;;;;;;;;;;27.72;45.47;100525.48;1728742;80;20134;-39
2021/08/04 01:21:07;;;;;;;;;;;;;;;27.73;45.50;100523.50;1753753;80;20183;-39
2021/08/04 01:23:46;;;;;;;;;;;;;;;27.73;45.54;100520.12;1748716;80;20184;-39
2021/08/04 01:26:30;;;;;;;;;;;;;;;27.73;45.59;100517.33;1751565;80;21072;-40
2021/08/04 01:29:02;;;;;;;;;;;;;;;27.73;45.62;100520.12;1752395;80;20174;-40
2021/08/04 01:31:34;;;;;;;;;;;;;;;27.74;45.70;100522.33;1750100;80;20183;-39
2021/08/04 01:33:58;;;;;;;;;;;;;;;27.73;45.73;100524.91;1724725;81;20431;-39
2021/08/04 01:36:24;;;;;;;;;;;;;;;27.74;45.77;100518.95;1751297;80;20133;-39
2021/08/04 01:38:54;;;;;;;;;;;;;;;27.74;45.80;100522.33;1752130;80;21211;-40
2021/08/04 01:41:20;;;;;;;;;;;;;;;27.74;45.84;100520.34;1750165;80;20169;-40
2021/08/04 01:43:46;;;;;;;;;;;;;;;27.75;45.89;100521.16;1756674;80;20708;-40
2021/08/04 01:46:12;;;;;;;;;;;;;;;27.75;45.93;100521.97;1748414;80;20651;-40
2021/08/04 01:48:39;;;;;;;;;;;;;;;27.76;45.97;100517.97;1749310;80;20201;-39
2021/08/04 01:51:08;;;;;;;;;;;;;;;27.75;46.00;100520.57;1754127;80;21093;-40
2021/08/04 01:53:34;;;;;;;;;;;;;;;27.75;46.06;100520.57;1713869;80;20142;-39
2021/08/04 01:56:00;;;;;;;;;;;;;;;27.76;46.05;100519.95;1705707;82;20166;-40
2021/08/04 01:58:27;;;;;;;;;;;;;;;27.76;46.15;100524.95;1708783;82;20207;-39
2021/08/04 02:00:52;;;;;;;;;;;;;;;27.77;46.17;100534.97;1705803;82;20247;-40
2021/08/04 02:03:18;;;;;;;;;;;;;;;27.77;46.21;100529.38;1709628;82;21046;-39
2021/08/04 02:05:45;;;;;;;;;;;;;;;27.77;46.23;100531.36;1705310;82;20267;-40
2021/08/04 02:08:32;;;;;;;;;;;;;;;27.77;46.27;100531.36;1705803;82;20137;-40
2021/08/04 02:11:10;;;;;;;;;;;;;;;27.77;46.28;100530.77;1707798;82;20431;-39
2021/08/04 02:13:45;;;;;;;;;;;;;;;27.79;46.33;100534.60;1704784;82;20201;-39
2021/08/04 02:16:28;;;;;;;;;;;;;;;27.79;46.37;100536.00;1704919;82;21232;-40
2021/08/04 02:19:09;;;;;;;;;;;;;;;27.77;46.36;100541.95;1711258;82;21524;-40
2021/08/04 02:21:35;;;;;;;;;;;;;;;27.77;46.45;100540.55;1703879;82;20162;-40
2021/08/04 02:24:01;;;;;;;;;;;;;;;27.76;46.49;100538.94;1684715;83;22027;-40
2021/08/04 02:26:27;;;;;;;;;;;;;;;27.77;46.52;100539.75;1709073;82;20183;-40
2021/08/04 02:28:54;;;;;;;;;;;;;;;27.77;46.55;100539.16;1703752;82;21057;-39
2021/08/04 02:31:20;;;;;;;;;;;;;;;27.77;46.58;100543.94;1687527;82;20438;-40
2021/08/04 02:33:46;;;;;;;;;;;;;;;27.77;46.60;100546.15;1707496;82;20756;-39
2021/08/04 02:36:12;;;;;;;;;;;;;;;27.78;46.67;100551.16;1707479;82;20960;-40
2021/08/04 02:38:38;;;;;;;;;;;;;;;27.77;46.67;100554.53;1707134;82;20185;-39
2021/08/04 02:41:04;;;;;;;;;;;;;;;27.77;46.74;100553.14;1705317;82;21133;-40
2021/08/04 02:43:30;;;;;;;;;;;;;;;27.78;46.76;100556.74;1710200;82;20161;-40
2021/08/04 02:45:58;;;;;;;;;;;;;;;27.78;46.78;100554.76;1685965;82;20219;-39
2021/08/04 02:48:24;;;;;;;;;;;;;;;27.77;46.80;100553.14;1711048;82;21011;-40
2021/08/04 02:50:54;;;;;;;;;;;;;;;27.80;46.85;100561.36;1709018;82;20162;-39
2021/08/04 02:53:20;;;;;;;;;;;;;;;27.80;46.88;100558.56;1739091;80;21061;-40
2021/08/04 02:55:49;;;;;;;;;;;;;;;27.79;46.92;100560.58;1754529;80;20191;-40
2021/08/04 02:58:14;;;;;;;;;;;;;;;27.79;46.95;100564.77;1755500;80;20147;-40
2021/08/04 03:00:40;;;;;;;;;;;;;;;27.80;47.00;100566.95;1753814;80;20902;-40
2021/08/04 03:03:06;;;;;;;;;;;;;;;27.80;47.01;100564.97;1752713;80;20233;-40
2021/08/04 03:05:32;;;;;;;;;;;;;;;27.79;47.02;100556.97;1746374;80;23308;-40
2021/08/04 03:07:59;;;;;;;;;;;;;;;27.80;47.05;100555.77;1751090;80;20127;-40
2021/08/04 03:10:25;;;;;;;;;;;;;;;27.79;47.07;100558.36;1751495;80;20308;-40
2021/08/04 03:12:51;;;;;;;;;;;;;;;27.79;47.10;100553.59;1754420;80;20204;-40
2021/08/04 03:15:16;;;;;;;;;;;;;;;27.80;47.10;100560.77;1753617;80;20231;-40
2021/08/04 03:17:42;;;;;;;;;;;;;;;27.80;47.14;100569.74;1750502;80;21719;-40
2021/08/04 03:20:10;;;;;;;;;;;;;;;27.81;47.20;100569.97;1753557;80;20794;-41
2021/08/04 03:22:36;;;;;;;;;;;;;;;27.80;47.23;100561.36;1757529;80;20439;-40
2021/08/04 03:25:02;;;;;;;;;;;;;;;27.81;47.27;100568.56;1753755;80;21701;-40
2021/08/04 03:27:27;;;;;;;;;;;;;;;27.81;47.27;100569.97;1748838;80;20145;-40
2021/08/04 03:29:53;;;;;;;;;;;;;;;27.80;47.27;100566.36;1748528;80;21024;-40
2021/08/04 03:32:19;;;;;;;;;;;;;;;27.81;47.33;100568.56;1748393;80;20198;-40
2021/08/04 03:34:45;;;;;;;;;;;;;;;27.81;47.34;100576.37;1750244;80;20193;-40
2021/08/04 03:37:11;;;;;;;;;;;;;;;27.80;47.36;100567.76;1753749;80;20187;-40
2021/08/04 03:39:37;;;;;;;;;;;;;;;27.81;47.39;100569.38;1754949;80;20165;-40
2021/08/04 03:42:04;;;;;;;;;;;;;;;27.81;47.40;100568.56;1759595;80;21020;-41
2021/08/04 03:44:29;;;;;;;;;;;;;;;27.80;47.45;100570.55;1754086;80;20776;-40
2021/08/04 03:46:55;;;;;;;;;;;;;;;27.80;47.45;100575.33;1752422;80;20616;-40
2021/08/04 03:49:21;;;;;;;;;;;;;;;27.82;47.47;100584.17;1754484;80;20152;-40
2021/08/04 03:51:47;;;;;;;;;;;;;;;27.82;47.51;100585.57;1747404;80;20171;-40
2021/08/04 03:54:13;;;;;;;;;;;;;;;27.81;47.52;100586.16;1757900;80;21089;-40
2021/08/04 03:56:39;;;;;;;;;;;;;;;27.81;47.54;100584.76;1756946;80;20462;-40
2021/08/04 03:59:05;;;;;;;;;;;;;;;27.82;47.57;100589.77;1752722;80;20618;-40
2021/08/04 04:01:31;;;;;;;;;;;;;;;27.83;47.58;100589.98;1749976;80;20432;-40
2021/08/04 04:03:57;;;;;;;;;;;;;;;27.81;47.61;100586.74;1751090;80;21252;-41
2021/08/04 04:06:23;;;;;;;;;;;;;;;27.82;47.61;100593.37;1753361;80;22006;-41
2021/08/04 04:08:49;;;;;;;;;;;;;;;27.82;47.64;100588.36;1756396;80;20178;-40
2021/08/04 04:11:16;;;;;;;;;;;;;;;27.83;47.66;100596.39;1751841;79;20216;-40
2021/08/04 04:13:42;;;;;;;;;;;;;;;27.83;47.67;100594.99;1745849;80;20492;-40
2021/08/04 04:16:07;;;;;;;;;;;;;;;27.82;47.70;100587.78;1753838;80;20249;-40
2021/08/04 04:18:33;;;;;;;;;;;;;;;27.83;47.72;100590.80;1758489;80;21749;-40
2021/08/04 04:20:59;;;;;;;;;;;;;;;27.83;47.73;100590.80;1752942;80;21612;-40
2021/08/04 04:23:25;;;;;;;;;;;;;;;27.82;47.78;100597.56;1746373;80;20228;-40
2021/08/04 04:25:51;;;;;;;;;;;;;;;27.82;47.78;100596.16;1750525;80;20163;-40
2021/08/04 04:28:17;;;;;;;;;;;;;;;27.83;47.79;100598.38;1754648;80;20221;-40
2021/08/04 04:30:43;;;;;;;;;;;;;;;27.83;47.79;100589.41;1749691;80;21153;-41
2021/08/04 04:33:09;;;;;;;;;;;;;;;27.82;47.79;100604.55;1744574;80;20424;-40
2021/08/04 04:35:35;;;;;;;;;;;;;;;27.83;47.82;100604.78;1753236;80;20183;-40
2021/08/04 04:38:01;;;;;;;;;;;;;;;27.84;47.83;100603.58;1751517;80;20225;-40
2021/08/04 04:40:27;;;;;;;;;;;;;;;27.85;47.84;100605.78;1747088;80;20473;-40
2021/08/04 04:42:56;;;;;;;;;;;;;;;27.84;47.84;100604.97;1743084;80;21051;-41
2021/08/04 04:45:22;;;;;;;;;;;;;;;27.84;47.96;100595.19;1757001;80;20188;-41
2021/08/04 04:47:48;;;;;;;;;;;;;;;27.85;48.06;100605.20;1742275;80;20481;-40
2021/08/04 04:50:15;;;;;;;;;;;;;;;27.86;48.15;100609.62;1760038;80;20150;-43
2021/08/04 04:52:42;;;;;;;;;;;;;;;27.88;48.19;100602.27;1747412;80;20202;-45
2021/08/04 04:55:09;;;;;;;;;;;;;;;27.88;48.21;100617.03;1716455;82;22074;-44
2021/08/04 04:57:35;;;;;;;;;;;;;;;27.90;48.24;100618.88;1711119;82;20182;-41
2021/08/04 05:00:04;;;;;;;;;;;;;;;27.92;48.28;100613.70;1715334;82;20455;-41
2021/08/04 05:02:30;;;;;;;;;;;;;;;27.93;48.31;100618.70;1720061;82;20299;-42
2021/08/04 05:04:58;;;;;;;;;;;;;;;27.94;48.36;100614.16;1715601;82;20487;-42
2021/08/04 05:07:25;;;;;;;;;;;;;;;27.96;48.39;100618.80;1712006;82;22018;-42
2021/08/04 05:09:51;;;;;;;;;;;;;;;27.96;48.47;100617.41;1709817;82;20221;-40
2021/08/04 05:12:19;;;;;;;;;;;;;;;27.97;48.51;100621.79;1716352;82;20471;-40
2021/08/04 05:14:45;;;;;;;;;;;;;;;27.97;48.46;100628.78;1725062;82;20330;-40
2021/08/04 05:17:13;;;;;;;;;;;;;;;28.00;48.52;100635.05;1718984;82;20157;-40
2021/08/04 05:19:40;;;;;;;;;;;;;;;28.01;48.54;100638.04;1720650;82;21025;-40
2021/08/04 05:22:06;;;;;;;;;;;;;;;28.01;48.58;100645.03;1712400;82;20386;-40
2021/08/04 05:24:33;;;;;;;;;;;;;;;28.02;48.65;100648.05;1721569;82;21056;-40
2021/08/04 05:26:59;;;;;;;;;;;;;;;28.03;48.61;100641.29;1710163;82;20188;-38
2021/08/04 05:29:25;;;;;;;;;;;;;;;28.04;48.71;100642.91;1715449;82;20217;-39
2021/08/04 05:31:52;;;;;;;;;;;;;;;28.05;48.74;100643.72;1716663;82;21010;-39
2021/08/04 05:34:21;;;;;;;;;;;;;;;28.05;48.80;100637.52;1715759;82;20200;-39
2021/08/04 05:36:47;;;;;;;;;;;;;;;28.06;48.82;100643.33;1708798;82;20419;-39
2021/08/04 05:39:13;;;;;;;;;;;;;;;28.07;48.80;100647.75;1718953;82;20190;-38
2021/08/04 05:41:39;;;;;;;;;;;;;;;28.08;48.79;100634.58;1718547;82;20201;-38
2021/08/04 05:44:06;;;;;;;;;;;;;;;28.09;48.81;100633.41;1721656;82;21217;-38
2021/08/04 05:46:32;;;;;;;;;;;;;;;28.08;48.82;100624.20;1713648;82;20153;-38
2021/08/04 05:48:57;;;;;;;;;;;;;;;28.09;48.82;100625.83;1726002;82;20230;-38
2021/08/04 05:51:23;;;;;;;;;;;;;;;28.10;48.81;100625.23;1719340;82;20251;-38
2021/08/04 05:53:49;;;;;;;;;;;;;;;28.09;48.82;100631.42;1716730;82;20715;-38
2021/08/04 05:56:15;;;;;;;;;;;;;;;28.10;48.84;100629.44;1698946;82;20564;-38
2021/08/04 05:58:41;;;;;;;;;;;;;;;28.09;48.82;100630.02;1667180;84;21696;-38
2021/08/04 06:01:07;;;;;;;;;;;;;;;28.09;48.83;100625.02;1696308;82;20117;-38
2021/08/04 06:03:34;;;;;;;;;;;;;;;28.09;48.83;100627.23;1695031;82;22107;-39
2021/08/04 06:06:00;;;;;;;;;;;;;;;28.09;48.82;100625.83;1699032;82;20163;-39
2021/08/04 06:08:26;;;;;;;;;;;;;;;28.10;48.81;100637.24;1699237;82;22043;-38
2021/08/04 06:10:52;;;;;;;;;;;;;;;28.11;48.82;100632.45;1704799;82;20185;-40
2021/08/04 06:13:18;;;;;;;;;;;;;;;28.11;48.82;100629.66;1699311;82;20203;-38
2021/08/04 06:15:44;;;;;;;;;;;;;;;28.12;48.82;100625.69;1698707;82;20232;-39
2021/08/04 06:18:10;;;;;;;;;;;;;;;28.11;48.82;100632.45;1698180;82;20224;-39
2021/08/04 06:20:36;;;;;;;;;;;;;;;28.11;48.82;100635.25;1702462;82;21197;-38
2021/08/04 06:23:02;;;;;;;;;;;;;;;28.13;48.80;100644.09;1706052;82;20750;-39
2021/08/04 06:25:27;;;;;;;;;;;;;;;28.13;48.81;100651.09;1696853;82;20207;-39
2021/08/04 06:27:54;;;;;;;;;;;;;;;28.13;48.82;100650.47;1679409;84;20238;-39
2021/08/04 06:30:21;;;;;;;;;;;;;;;28.14;48.85;100652.69;1699054;82;20413;-38
2021/08/04 06:32:47;;;;;;;;;;;;;;;28.14;48.88;100656.29;1699898;82;21204;-39
2021/08/04 06:35:13;;;;;;;;;;;;;;;28.14;48.86;100645.10;1662402;84;21691;-43
2021/08/04 06:37:39;;;;;;;;;;;;;;;28.13;48.86;100640.68;1700046;82;20173;-38
2021/08/04 06:40:06;;;;;;;;;;;;;;;28.14;48.88;100642.30;1701186;82;20188;-38
2021/08/04 06:42:32;;;;;;;;;;;;;;;28.13;48.88;100642.08;1697723;82;20310;-39
2021/08/04 06:44:58;;;;;;;;;;;;;;;28.13;48.93;100636.48;1695994;82;22008;-39
2021/08/04 06:47:24;;;;;;;;;;;;;;;28.14;48.93;100638.70;1705653;82;20175;-39
2021/08/04 06:49:50;;;;;;;;;;;;;;;28.13;48.95;100634.30;1699823;82;20278;-39
2021/08/04 06:52:16;;;;;;;;;;;;;;;28.14;48.95;100636.70;1699954;82;20152;-39
2021/08/04 06:54:41;;;;;;;;;;;;;;;28.14;48.95;100640.91;1727657;81;20195;-39
2021/08/04 06:57:07;;;;;;;;;;;;;;;28.13;48.97;100635.09;1721806;81;21046;-39
2021/08/04 06:59:33;;;;;;;;;;;;;;;28.14;48.98;100643.70;1727855;81;20684;-39
2021/08/04 07:02:01;;;;;;;;;;;;;;;28.13;48.98;100643.48;1726683;81;20204;-39
2021/08/04 07:04:29;;;;;;;;;;;;;;;28.14;48.98;100642.30;1728915;81;20210;-39
2021/08/04 07:06:59;;;;;;;;;;;;;;;28.13;48.99;100632.29;1729477;81;20283;-39
2021/08/04 07:09:25;;;;;;;;;;;;;;;28.12;49.06;100629.89;1736481;81;20501;-39
2021/08/04 07:11:51;;;;;;;;;;;;;;;28.08;49.03;100625.60;1730558;81;20206;-39
2021/08/04 07:14:17;;;;;;;;;;;;;;;28.04;49.01;100623.34;1726543;81;20205;-39
2021/08/04 07:16:44;;;;;;;;;;;;;;;28.00;49.01;100625.84;1725827;81;20695;-40
2021/08/04 07:19:10;;;;;;;;;;;;;;;27.95;48.97;100625.56;1716781;81;20237;-38
2021/08/04 07:21:38;;;;;;;;;;;;;;;27.91;48.92;100636.47;1728137;81;21108;-39
2021/08/04 07:24:07;;;;;;;;;;;;;;;27.85;48.85;100636.54;1726858;81;20233;-39
2021/08/04 07:26:34;;;;;;;;;;;;;;;27.82;48.81;100638.10;1724950;81;20224;-40
2021/08/04 07:29:00;;;;;;;;;;;;;;;27.81;48.80;100639.86;1723420;81;20856;-40
2021/08/04 07:31:26;;;;;;;;;;;;;;;27.80;48.81;100632.05;1699433;83;20255;-39
2021/08/04 07:33:52;;;;;;;;;;;;;;;27.81;48.79;100630.89;1753336;80;23268;-39
2021/08/04 07:36:18;;;;;;;;;;;;;;;27.83;48.80;100630.52;1747121;80;20238;-39
2021/08/04 07:38:44;;;;;;;;;;;;;;;27.83;48.78;100628.54;1751815;80;20202;-39
2021/08/04 07:41:10;;;;;;;;;;;;;;;27.83;48.72;100634.13;1755910;80;20178;-41
2021/08/04 07:43:36;;;;;;;;;;;;;;;27.80;48.66;100636.25;1748281;80;20202;-39
2021/08/04 07:46:02;;;;;;;;;;;;;;;27.76;48.59;100633.98;1751462;80;21142;-39
2021/08/04 07:48:29;;;;;;;;;;;;;;;27.73;48.52;100635.31;1752683;80;20198;-39
2021/08/04 07:50:55;;;;;;;;;;;;;;;27.69;48.43;100633.27;1754660;80;20262;-39
2021/08/04 07:53:22;;;;;;;;;;;;;;;27.66;48.34;100633.20;1746002;80;20889;-38
2021/08/04 07:55:48;;;;;;;;;;;;;;;27.63;48.27;100628.33;1743930;80;20167;-39
2021/08/04 07:58:14;;;;;;;;;;;;;;;27.59;48.15;100631.65;1743373;80;21103;-39
2021/08/04 08:00:40;;;;;;;;;;;;;;;27.49;47.85;100623.88;1742712;80;20195;-39
2021/08/04 08:03:06;;;;;;;;;;;;;;;27.36;47.75;100617.61;1748778;80;20434;-39
2021/08/04 08:05:32;;;;;;;;;;;;;;;27.30;47.79;100620.47;1743204;80;20467;-39
2021/08/04 08:08:04;;;;;;;;;;;;;;;27.29;47.94;100617.44;1745422;80;20191;-39
2021/08/04 08:10:31;;;;;;;;;;;;;;;27.28;47.84;100613.64;1745683;80;21229;-38
2021/08/04 08:12:57;;;;;;;;;;;;;;;27.20;47.67;100607.89;1744941;80;20184;-39
2021/08/04 08:15:24;;;;;;;;;;;;;;;27.16;47.76;100602.00;1744318;80;20607;-39
2021/08/04 08:17:49;;;;;;;;;;;;;;;27.18;47.84;100603.86;1743714;80;20189;-39
2021/08/04 08:20:16;;;;;;;;;;;;;;;27.12;47.70;100594.95;1716014;82;20315;-39
2021/08/04 08:22:42;;;;;;;;;;;;;;;27.07;47.64;100586.89;1711336;82;21070;-39
2021/08/04 08:25:12;;;;;;;;;;;;;;;27.06;47.81;100585.85;1715966;82;20642;-39
2021/08/04 08:27:37;;;;;;;;;;;;;;;27.07;47.77;100580.50;1714435;82;20212;-39
2021/08/04 08:30:04;;;;;;;;;;;;;;;27.03;47.64;100581.01;1691721;83;20220;-39
2021/08/04 08:32:30;;;;;;;;;;;;;;;26.99;47.63;100582.30;1694013;83;20219;-39
2021/08/04 08:34:56;;;;;;;;;;;;;;;27.01;47.80;100577.18;1720957;81;21102;-38
2021/08/04 08:37:22;;;;;;;;;;;;;;;27.02;47.66;100580.78;1725152;81;21490;-39
2021/08/04 08:39:48;;;;;;;;;;;;;;;26.97;47.54;100579.09;1722214;81;20168;-39
2021/08/04 08:42:17;;;;;;;;;;;;;;;26.96;47.62;100576.06;1745707;80;22198;-39
2021/08/04 08:44:43;;;;;;;;;;;;;;;26.99;47.68;100566.95;1743651;80;20702;-39
2021/08/04 08:47:09;;;;;;;;;;;;;;;26.97;47.54;100559.55;1743881;80;22020;-39
2021/08/04 08:49:35;;;;;;;;;;;;;;;26.95;47.45;100556.88;1740987;80;20157;-39
2021/08/04 08:52:01;;;;;;;;;;;;;;;26.96;47.58;100555.13;1749627;80;20176;-39
2021/08/04 08:54:27;;;;;;;;;;;;;;;26.98;47.53;100558.96;1746722;80;20151;-39
2021/08/04 08:56:53;;;;;;;;;;;;;;;26.97;47.42;100554.55;1746710;80;20138;-39
2021/08/04 08:59:19;;;;;;;;;;;;;;;26.92;47.39;100551.45;1751856;80;21123;-39
2021/08/04 09:01:45;;;;;;;;;;;;;;;26.96;47.54;100545.94;1746434;80;20156;-39
2021/08/04 09:04:15;;;;;;;;;;;;;;;26.96;47.43;100545.94;1750767;80;20558;-39
2021/08/04 09:06:52;;;;;;;;;;;;;;;26.93;47.32;100551.69;1749670;80;20402;-39
2021/08/04 09:09:22;;;;;;;;;;;;;;;26.90;47.22;100547.42;1757945;80;20200;-39
2021/08/04 09:11:53;;;;;;;;;;;;;;;26.89;47.34;100539.63;1754400;80;21074;-39
2021/08/04 09:14:29;;;;;;;;;;;;;;;26.92;47.43;100537.50;1749511;80;20419;-39
2021/08/04 09:17:03;;;;;;;;;;;;;;;26.90;47.28;100544.05;1752957;80;20190;-39
2021/08/04 09:19:31;;;;;;;;;;;;;;;26.86;47.23;100540.38;1716593;82;20619;-39
2021/08/04 09:22:16;;;;;;;;;;;;;;;26.83;47.18;100541.05;1692387;82;20221;-39
2021/08/04 09:25:03;;;;;;;;;;;;;;;26.78;47.16;100538.55;1687980;82;21095;-40
2021/08/04 09:27:57;;;;;;;;;;;;;;;26.79;47.38;100547.96;1688403;82;20145;-39
2021/08/04 09:30:27;;;;;;;;;;;;;;;26.80;47.27;100539.82;1693433;82;20118;-39
2021/08/04 09:32:54;;;;;;;;;;;;;;;26.78;47.15;100535.76;1692695;82;20159;-39
2021/08/04 09:35:21;;;;;;;;;;;;;;;26.74;47.05;100539.88;1696791;81;20142;-39
2021/08/04 09:37:48;;;;;;;;;;;;;;;26.70;47.01;100538.17;1696696;82;21124;-40
2021/08/04 09:40:16;;;;;;;;;;;;;;;26.67;46.96;100531.94;1694035;82;20285;-39
2021/08/04 09:42:45;;;;;;;;;;;;;;;26.65;47.01;100530.12;1698047;82;20497;-39
2021/08/04 09:45:13;;;;;;;;;;;;;;;26.68;47.16;100530.77;1694636;82;20172;-39
2021/08/04 09:47:54;;;;;;;;;;;;;;;26.71;47.06;100528.64;1700298;82;20195;-39
2021/08/04 09:50:20;;;;;;;;;;;;;;;26.67;46.94;100524.38;1692622;82;21206;-40
2021/08/04 09:52:56;;;;;;;;;;;;;;;26.67;46.93;100522.17;1668483;83;20174;-40
2021/08/04 09:55:23;;;;;;;;;;;;;;;26.70;47.07;100516.66;1681769;83;20143;-39
2021/08/04 09:57:51;;;;;;;;;;;;;;;26.71;46.93;100509.10;1678117;82;20486;-40
2021/08/04 10:00:19;;;;;;;;;;;;;;;26.70;46.80;100509.69;1711372;83;20136;-39
2021/08/04 10:02:44;;;;;;;;;;;;;;;26.67;46.70;100510.42;1715109;83;21142;-39
2021/08/04 10:05:19;;;;;;;;;;;;;;;26.65;46.63;100510.58;1721930;81;20138;-39
2021/08/04 10:08:10;;;;;;;;;;;;;;;26.63;46.58;100505.94;1732604;81;20127;-40
2021/08/04 10:10:46;;;;;;;;;;;;;;;26.63;46.64;100504.55;1735264;81;20414;-39
2021/08/04 10:13:14;;;;;;;;;;;;;;;26.68;46.69;100498.09;1719797;81;20334;-40
2021/08/04 10:15:42;;;;;;;;;;;;;;;26.68;46.54;100486.12;1726943;81;21136;-40
2021/08/04 10:18:10;;;;;;;;;;;;;;;26.66;46.43;100485.67;1723310;81;20161;-40
2021/08/04 10:20:36;;;;;;;;;;;;;;;26.66;46.43;100482.30;1724445;81;20294;-40
2021/08/04 10:23:02;;;;;;;;;;;;;;;26.71;46.56;100479.80;1717514;81;20163;-40
2021/08/04 10:25:29;;;;;;;;;;;;;;;26.73;46.44;100488.02;1696993;81;20283;-40
2021/08/04 10:27:55;;;;;;;;;;;;;;;26.72;46.30;100473.86;1708252;83;21144;-40
2021/08/04 10:30:21;;;;;;;;;;;;;;;26.72;46.22;100471.07;1719424;82;21186;-40
2021/08/04 10:32:47;;;;;;;;;;;;;;;26.71;46.11;100468.05;1715616;82;20510;-40
2021/08/04 10:35:13;;;;;;;;;;;;;;;26.70;46.06;100467.83;1714515;82;20756;-39
2021/08/04 10:37:40;;;;;;;;;;;;;;;26.70;45.99;100461.43;1705618;82;20163;-39
2021/08/04 10:40:08;;;;;;;;;;;;;;;26.68;45.90;100459.03;1717225;82;21132;-40
2021/08/04 10:42:38;;;;;;;;;;;;;;;26.69;45.81;100458.44;1717284;82;20435;-40
2021/08/04 10:45:27;;;;;;;;;;;;;;;26.69;45.74;100451.47;1710659;81;20098;-40
2021/08/04 10:47:56;;;;;;;;;;;;;;;26.70;45.64;100451.08;1712453;81;20157;-41
2021/08/04 10:50:22;;;;;;;;;;;;;;;26.71;45.54;100449.10;1720174;81;20179;-40
2021/08/04 10:53:01;;;;;;;;;;;;;;;26.73;45.57;100439.79;1725292;82;21313;-39
2021/08/04 10:55:28;;;;;;;;;;;;;;;26.79;45.60;100429.92;1686322;83;20191;-40
2021/08/04 10:58:07;;;;;;;;;;;;;;;26.81;45.46;100435.38;1690472;83;20206;-39
2021/08/04 11:00:34;;;;;;;;;;;;;;;26.83;45.34;100432.19;1708425;83;20233;-39
2021/08/04 11:03:00;;;;;;;;;;;;;;;26.84;45.23;100425.44;1747468;80;20208;-40
2021/08/04 11:05:47;;;;;;;;;;;;;;;26.84;45.13;100418.47;1752145;80;21061;-40
2021/08/04 11:08:16;;;;;;;;;;;;;;;26.85;45.07;100422.09;1746287;80;20267;-39
2021/08/04 11:10:42;;;;;;;;;;;;;;;26.86;44.99;100418.95;1753081;80;20380;-39
2021/08/04 11:13:08;;;;;;;;;;;;;;;26.90;45.08;100419.02;1751001;80;20759;-39
2021/08/04 11:15:34;;;;;;;;;;;;;;;26.95;45.01;100416.70;1746189;80;20293;-39
2021/08/04 11:18:12;;;;;;;;;;;;;;;26.97;44.92;100416.34;1758047;80;21749;-39
2021/08/04 11:21:10;;;;;;;;;;;;;;;26.99;44.81;100418.19;1747555;80;20542;-39
2021/08/04 11:23:45;;;;;;;;;;;;;;;27.00;44.71;100413.61;1714122;82;20248;-39
2021/08/04 11:26:23;;;;;;;;;;;;;;;27.00;44.61;100401.05;1700584;82;20162;-40
2021/08/04 11:28:49;;;;;;;;;;;;;;;27.01;44.52;100397.09;1713574;82;20136;-40
2021/08/04 11:31:16;;;;;;;;;;;;;;;27.03;44.44;100393.31;1720399;82;21184;-40
2021/08/04 11:33:42;;;;;;;;;;;;;;;27.03;44.37;100385.56;1744548;80;20225;-40
2021/08/04 11:36:11;;;;;;;;;;;;;;;27.05;44.29;100384.58;1730676;81;20201;-40
2021/08/04 11:38:48;;;;;;;;;;;;;;;27.06;44.24;100384.22;1755665;80;20182;-40
2021/08/04 11:41:35;;;;;;;;;;;;;;;27.08;44.18;100383.24;1752433;80;20143;-39
2021/08/04 11:44:16;;;;;;;;;;;;;;;27.09;44.09;100376.48;1748099;80;23218;-40
2021/08/04 11:46:57;;;;;;;;;;;;;;;27.12;44.02;100372.13;1747419;80;20311;-41
2021/08/04 11:49:33;;;;;;;;;;;;;;;27.14;43.95;100378.17;1754356;80;20170;-40
2021/08/04 11:52:06;;;;;;;;;;;;;;;27.15;43.88;100374.20;1750087;80;20152;-39
2021/08/04 11:54:34;;;;;;;;;;;;;;;27.17;43.98;100367.05;1754870;80;20171;-38
2021/08/04 11:57:01;;;;;;;;;;;;;;;27.25;44.01;100370.18;1744716;80;21196;-39
2021/08/04 11:59:27;;;;;;;;;;;;;;;27.30;43.87;100371.05;1746563;80;20275;-39
2021/08/04 12:01:59;;;;;;;;;;;;;;;27.33;43.79;100367.53;1742241;80;20223;-38
2021/08/04 12:04:25;;;;;;;;;;;;;;;27.34;43.70;100365.73;1738181;80;20145;-38
2021/08/04 12:07:02;;;;;;;;;;;;;;;27.35;43.64;100362.36;1745380;80;20134;-38
2021/08/04 12:09:31;;;;;;;;;;;;;;;27.38;43.75;100360.20;1749642;79;23151;-39
2021/08/04 12:11:57;;;;;;;;;;;;;;;27.44;43.79;100351.73;1745960;80;21649;-39
2021/08/04 12:14:23;;;;;;;;;;;;;;;27.47;43.67;100347.62;1739880;80;20227;-39
2021/08/04 12:16:52;;;;;;;;;;;;;;;27.51;43.56;100357.45;1738366;80;20170;-39
2021/08/04 12:19:28;;;;;;;;;;;;;;;27.51;43.50;100346.27;1745451;80;20364;-38
2021/08/04 12:21:54;;;;;;;;;;;;;;;27.51;43.45;100342.89;1740563;80;21121;-39
2021/08/04 12:24:20;;;;;;;;;;;;;;;27.52;43.38;100347.89;1745357;80;20771;-40
2021/08/04 12:26:46;;;;;;;;;;;;;;;27.53;43.34;100343.92;1737249;80;20170;-39
2021/08/04 12:29:24;;;;;;;;;;;;;;;27.55;43.28;100338.75;1742069;80;22167;-40
2021/08/04 12:32:21;;;;;;;;;;;;;;;27.55;43.22;100338.16;1744373;80;20139;-39
2021/08/04 12:34:43;;;;;;;;;;;;;;;27.58;43.16;100343.61;1744321;80;21259;-39
2021/08/04 12:37:11;;;;;;;;;;;;;;;27.59;43.07;100332.63;1750178;80;20498;-39
2021/08/04 12:39:38;;;;;;;;;;;;;;;27.61;43.02;100340.05;1745735;80;20414;-40
2021/08/04 12:42:04;;;;;;;;;;;;;;;27.62;42.98;100330.49;1750756;80;21264;-40